Rich Square, NC (27869)

9:21 AM EST on February 09, 2016 (GMT -0500)
Tri County | | Change Station
CLOSE
Current Station
Airport
Location: Ahoskie,
Elevation: 69 ft
Nearby Weather Stations

Elev 69 ft 36.30 °N, 77.17 °W | Updated 6 minutes ago

Mostly Cloudy
Mostly Cloudy
38 °F
Feels Like 36 °F
N
4
Wind Variable Wind from WSW

Today
High -- | Low -- °F
--% Chance of Precip.
Yesterday
High -- | Low -- °F
Precip. -- in
Pressure 29.64 in
Visibility 10.0 miles
Clouds Mostly Cloudy 9000 ft
Mostly Cloudy 12000 ft
Windchill 36 °F
Dew Point 32 °F
Humidity 80%
Rainfall 0.00 in
Snow Depth Not available.
7:03 AM 5:43 PM
New Moon, 1% visible
METAR KASJ 091415Z AUTO 24003KT 10SM BKN090 BKN120 03/00 A2964 RMK AO2 T00340002
Pressure 29.64 in
Visibility 10.0 miles
Clouds Mostly Cloudy 9000 ft
Mostly Cloudy 12000 ft
Windchill 36 °F
Dew Point 32 °F
Humidity 80%
Rainfall 0.00 in
Snow Depth Not available.
7:03 AM 5:43 PM
New Moon, 1% visible
METAR KASJ 091415Z AUTO 24003KT 10SM BKN090 BKN120 03/00 A2964 RMK AO2 T00340002

10-Day Weather Forecast

Almanac

Astronomy

Feb. 09, 2016 Rise Set
Actual Time
Civil Twilight
Nautical Twilight
Astronomical Twilight
Moon
Length of Visible Light
Length of Day
Tomorrow will be .
, % of the Moon is Illuminated

Today's Extremes

State Highs State Lows

Community

WunderPhotos

Upload Photos

1,891,602 photos uploaded!

WunderBlog® & News

Nearby

Air Quality

  Air Quality AQ Index Pollutant
Not available.

Snow Depth

Station Depth Elevation

Earthquake Activity

City Distance Mag. Time & Date
Minimum magnitude displayed is 2.5.

Coastal Water Temperatures

Place Temperature

Stations

Nearby Weather Stations

Station Location Temp. Windchill Dew Point Humidity Wind Precip. Elev Updated Type
                   

Watches & Warnings

There are currently no watches in effect.